Weather at General Urquiza Airport

Public forecast

Using degrees Celsius for public forecast. Weather courtesy of forecast.io.

Closest aviation weather report (METAR) to General Urquiza Airport

Closest report is Rosario Islas Malvinas International Airport, 68.3 nm (126.6 km) SSW.

2024/07/14 16:00 (retrieved 53 minutes ago)

SAAR 141600Z 07006KT 360V140 CAVOK 12/01 Q1030

Closest aviation forecast (TAF) to General Urquiza Airport

Closest forecast is Rosario Islas Malvinas International Airport, 68.3 nm (126.6 km) SSW.

2024/07/14 12:00 (retrieved 5 hours ago)

TAF SAAR 141100Z 1412/1512 VRB03KT 3000 BR NSC TX14/1418Z TNM03/1412Z BECMG 1412/1414 CAVOK BECMG 1500/1503 7000 SCT035 BECMG 1504/1506 3000 BR BKN035 TEMPO 1508/1512 0300 FG